sensor_id;sensor_type;location;lat;lon;timestamp;P1;durP1;ratioP1;P2;durP2;ratioP2
51692;SDS011;37777;53.066;21.638;2022-11-14T00:05:14;54.40;;;21.52;;
51692;SDS011;37777;53.066;21.638;2022-11-14T00:12:16;49.90;;;20.27;;
51692;SDS011;37777;53.066;21.638;2022-11-14T00:19:18;48.80;;;21.52;;
51692;SDS011;37777;53.066;21.638;2022-11-14T00:26:20;46.58;;;19.88;;
51692;SDS011;37777;53.066;21.638;2022-11-14T00:33:21;48.58;;;20.67;;
51692;SDS011;37777;53.066;21.638;2022-11-14T00:40:23;47.75;;;20.88;;
51692;SDS011;37777;53.066;21.638;2022-11-14T00:47:25;47.42;;;19.40;;
51692;SDS011;37777;53.066;21.638;2022-11-14T00:54:27;51.45;;;21.05;;
51692;SDS011;37777;53.066;21.638;2022-11-14T01:01:29;46.88;;;20.95;;
51692;SDS011;37777;53.066;21.638;2022-11-14T01:08:31;54.03;;;20.85;;
51692;SDS011;37777;53.066;21.638;2022-11-14T01:15:36;41.90;;;19.73;;
51692;SDS011;37777;53.066;21.638;2022-11-14T01:22:38;46.40;;;19.15;;
51692;SDS011;37777;53.066;21.638;2022-11-14T01:29:40;47.42;;;19.40;;
51692;SDS011;37777;53.066;21.638;2022-11-14T01:36:42;50.95;;;19.55;;
51692;SDS011;37777;53.066;21.638;2022-11-14T01:43:44;45.72;;;18.75;;
51692;SDS011;37777;53.066;21.638;2022-11-14T01:50:46;49.75;;;20.67;;
51692;SDS011;37777;53.066;21.638;2022-11-14T01:57:50;48.78;;;19.63;;
51692;SDS011;37777;53.066;21.638;2022-11-14T02:05:08;50.72;;;20.17;;
51692;SDS011;37777;53.066;21.638;2022-11-14T02:12:12;44.63;;;17.67;;
51692;SDS011;37777;53.066;21.638;2022-11-14T02:19:15;41.47;;;18.10;;
51692;SDS011;37777;53.066;21.638;2022-11-14T02:26:18;38.33;;;17.58;;
51692;SDS011;37777;53.066;21.638;2022-11-14T02:33:20;46.47;;;19.27;;
51692;SDS011;37777;53.066;21.638;2022-11-14T02:40:21;42.97;;;17.75;;
51692;SDS011;37777;53.066;21.638;2022-11-14T02:47:23;52.47;;;18.35;;
51692;SDS011;37777;53.066;21.638;2022-11-14T02:54:25;42.60;;;17.20;;
51692;SDS011;37777;53.066;21.638;2022-11-14T03:01:27;40.88;;;17.60;;
51692;SDS011;37777;53.066;21.638;2022-11-14T03:08:29;50.28;;;18.85;;
51692;SDS011;37777;53.066;21.638;2022-11-14T03:15:31;49.92;;;19.50;;
51692;SDS011;37777;53.066;21.638;2022-11-14T03:22:36;51.38;;;20.08;;
51692;SDS011;37777;53.066;21.638;2022-11-14T03:29:38;42.60;;;18.23;;
51692;SDS011;37777;53.066;21.638;2022-11-14T03:36:40;44.42;;;18.05;;
51692;SDS011;37777;53.066;21.638;2022-11-14T03:43:42;52.40;;;20.20;;
51692;SDS011;37777;53.066;21.638;2022-11-14T03:50:43;44.88;;;18.73;;
51692;SDS011;37777;53.066;21.638;2022-11-14T03:57:45;44.28;;;17.55;;
51692;SDS011;37777;53.066;21.638;2022-11-14T04:04:47;52.37;;;19.27;;
51692;SDS011;37777;53.066;21.638;2022-11-14T04:11:49;47.22;;;19.20;;
51692;SDS011;37777;53.066;21.638;2022-11-14T04:18:50;49.75;;;17.65;;
51692;SDS011;37777;53.066;21.638;2022-11-14T04:25:52;50.88;;;19.75;;
51692;SDS011;37777;53.066;21.638;2022-11-14T04:32:54;53.33;;;19.35;;
51692;SDS011;37777;53.066;21.638;2022-11-14T04:39:56;52.28;;;19.83;;
51692;SDS011;37777;53.066;21.638;2022-11-14T04:47:01;49.75;;;19.02;;
51692;SDS011;37777;53.066;21.638;2022-11-14T04:54:03;47.60;;;18.90;;
51692;SDS011;37777;53.066;21.638;2022-11-14T05:01:10;45.90;;;18.90;;
51692;SDS011;37777;53.066;21.638;2022-11-14T05:08:14;47.67;;;18.52;;
51692;SDS011;37777;53.066;21.638;2022-11-14T05:15:15;52.33;;;17.95;;
51692;SDS011;37777;53.066;21.638;2022-11-14T05:22:17;39.75;;;17.23;;
51692;SDS011;37777;53.066;21.638;2022-11-14T05:29:19;46.17;;;17.83;;
51692;SDS011;37777;53.066;21.638;2022-11-14T05:36:21;39.55;;;17.55;;
51692;SDS011;37777;53.066;21.638;2022-11-14T05:43:23;39.47;;;17.48;;
51692;SDS011;37777;53.066;21.638;2022-11-14T05:50:25;34.53;;;16.90;;
51692;SDS011;37777;53.066;21.638;2022-11-14T05:57:26;35.67;;;16.95;;
51692;SDS011;37777;53.066;21.638;2022-11-14T06:04:28;32.40;;;14.70;;
51692;SDS011;37777;53.066;21.638;2022-11-14T06:11:30;36.58;;;16.05;;
51692;SDS011;37777;53.066;21.638;2022-11-14T06:18:32;35.13;;;16.10;;
51692;SDS011;37777;53.066;21.638;2022-11-14T06:25:34;30.42;;;13.88;;
51692;SDS011;37777;53.066;21.638;2022-11-14T06:32:36;29.65;;;13.63;;
51692;SDS011;37777;53.066;21.638;2022-11-14T06:39:38;33.10;;;15.65;;
51692;SDS011;37777;53.066;21.638;2022-11-14T06:46:39;26.95;;;12.90;;
51692;SDS011;37777;53.066;21.638;2022-11-14T06:53:41;31.45;;;14.10;;
51692;SDS011;37777;53.066;21.638;2022-11-14T07:00:43;31.58;;;14.27;;
51692;SDS011;37777;53.066;21.638;2022-11-14T07:07:45;26.27;;;13.40;;
51692;SDS011;37777;53.066;21.638;2022-11-14T07:14:47;25.60;;;13.90;;
51692;SDS011;37777;53.066;21.638;2022-11-14T07:21:49;29.17;;;14.18;;
51692;SDS011;37777;53.066;21.638;2022-11-14T07:28:50;30.17;;;14.25;;
51692;SDS011;37777;53.066;21.638;2022-11-14T07:36:02;27.85;;;13.18;;
51692;SDS011;37777;53.066;21.638;2022-11-14T07:43:03;24.70;;;13.55;;
51692;SDS011;37777;53.066;21.638;2022-11-14T07:50:05;26.27;;;13.35;;
51692;SDS011;37777;53.066;21.638;2022-11-14T07:57:07;26.10;;;12.77;;
51692;SDS011;37777;53.066;21.638;2022-11-14T08:04:09;30.10;;;12.52;;
51692;SDS011;37777;53.066;21.638;2022-11-14T08:11:11;27.90;;;11.45;;
51692;SDS011;37777;53.066;21.638;2022-11-14T08:18:13;23.05;;;11.75;;
51692;SDS011;37777;53.066;21.638;2022-11-14T08:25:15;25.23;;;11.98;;
51692;SDS011;37777;53.066;21.638;2022-11-14T08:32:17;34.45;;;11.65;;
51692;SDS011;37777;53.066;21.638;2022-11-14T08:39:19;20.20;;;10.30;;
51692;SDS011;37777;53.066;21.638;2022-11-14T08:46:20;22.33;;;10.60;;
51692;SDS011;37777;53.066;21.638;2022-11-14T08:53:22;20.08;;;9.95;;
51692;SDS011;37777;53.066;21.638;2022-11-14T09:00:24;18.73;;;9.50;;
51692;SDS011;37777;53.066;21.638;2022-11-14T09:07:26;14.13;;;7.55;;
51692;SDS011;37777;53.066;21.638;2022-11-14T09:14:29;33.58;;;8.27;;
51692;SDS011;37777;53.066;21.638;2022-11-14T09:21:31;14.02;;;7.28;;
51692;SDS011;37777;53.066;21.638;2022-11-14T09:28:33;11.50;;;6.53;;
51692;SDS011;37777;53.066;21.638;2022-11-14T09:35:35;12.35;;;5.30;;
51692;SDS011;37777;53.066;21.638;2022-11-14T09:49:43;10.40;;;5.00;;
51692;SDS011;37777;53.066;21.638;2022-11-14T09:56:45;12.00;;;4.55;;
51692;SDS011;37777;53.066;21.638;2022-11-14T10:04:08;8.20;;;5.13;;
51692;SDS011;37777;53.066;21.638;2022-11-14T10:33:12;9.20;;;5.65;;
51692;SDS011;37777;53.066;21.638;2022-11-14T10:40:19;10.05;;;5.53;;
51692;SDS011;37777;53.066;21.638;2022-11-14T10:47:22;9.20;;;6.10;;
51692;SDS011;37777;53.066;21.638;2022-11-14T11:08:51;9.75;;;5.40;;
51692;SDS011;37777;53.066;21.638;2022-11-14T11:16:12;9.95;;;5.43;;
51692;SDS011;37777;53.066;21.638;2022-11-14T11:30:21;11.82;;;5.10;;
51692;SDS011;37777;53.066;21.638;2022-11-14T11:38:06;9.65;;;5.35;;
51692;SDS011;37777;53.066;21.638;2022-11-14T11:44:49;8.40;;;4.85;;
51692;SDS011;37777;53.066;21.638;2022-11-14T11:51:54;14.45;;;6.47;;
51692;SDS011;37777;53.066;21.638;2022-11-14T11:59:04;10.07;;;5.38;;
51692;SDS011;37777;53.066;21.638;2022-11-14T12:06:13;10.65;;;5.60;;
51692;SDS011;37777;53.066;21.638;2022-11-14T12:27:52;8.25;;;5.20;;
51692;SDS011;37777;53.066;21.638;2022-11-14T12:34:57;7.15;;;5.22;;
51692;SDS011;37777;53.066;21.638;2022-11-14T12:42:02;9.27;;;5.32;;
51692;SDS011;37777;53.066;21.638;2022-11-14T13:03:36;8.65;;;5.18;;
51692;SDS011;37777;53.066;21.638;2022-11-14T13:17:43;7.35;;;4.93;;
51692;SDS011;37777;53.066;21.638;2022-11-14T13:32:11;10.93;;;6.25;;
51692;SDS011;37777;53.066;21.638;2022-11-14T13:53:35;8.40;;;5.40;;
51692;SDS011;37777;53.066;21.638;2022-11-14T14:01:14;9.13;;;5.75;;
51692;SDS011;37777;53.066;21.638;2022-11-14T14:08:28;7.93;;;5.30;;
51692;SDS011;37777;53.066;21.638;2022-11-14T14:22:49;11.15;;;5.97;;
51692;SDS011;37777;53.066;21.638;2022-11-14T14:30:07;11.68;;;7.10;;
51692;SDS011;37777;53.066;21.638;2022-11-14T14:37:22;9.75;;;6.13;;
51692;SDS011;37777;53.066;21.638;2022-11-14T14:44:29;14.68;;;7.85;;
51692;SDS011;37777;53.066;21.638;2022-11-14T14:58:35;17.05;;;10.73;;
51692;SDS011;37777;53.066;21.638;2022-11-14T15:05:39;16.45;;;9.70;;
51692;SDS011;37777;53.066;21.638;2022-11-14T15:12:40;16.02;;;9.25;;
51692;SDS011;37777;53.066;21.638;2022-11-14T15:19:43;16.48;;;9.48;;
51692;SDS011;37777;53.066;21.638;2022-11-14T15:26:47;16.10;;;9.05;;
51692;SDS011;37777;53.066;21.638;2022-11-14T15:33:59;17.58;;;9.93;;
51692;SDS011;37777;53.066;21.638;2022-11-14T15:41:15;17.70;;;10.40;;
51692;SDS011;37777;53.066;21.638;2022-11-14T15:48:19;19.67;;;10.45;;
51692;SDS011;37777;53.066;21.638;2022-11-14T15:55:21;19.70;;;10.80;;
51692;SDS011;37777;53.066;21.638;2022-11-14T16:02:28;23.30;;;11.35;;
51692;SDS011;37777;53.066;21.638;2022-11-14T16:09:30;19.40;;;11.10;;
51692;SDS011;37777;53.066;21.638;2022-11-14T16:16:32;24.50;;;10.50;;
51692;SDS011;37777;53.066;21.638;2022-11-14T16:23:34;18.42;;;10.25;;
51692;SDS011;37777;53.066;21.638;2022-11-14T16:30:36;17.08;;;9.63;;
51692;SDS011;37777;53.066;21.638;2022-11-14T16:37:38;19.10;;;10.20;;
51692;SDS011;37777;53.066;21.638;2022-11-14T16:44:39;22.20;;;11.25;;
51692;SDS011;37777;53.066;21.638;2022-11-14T16:51:49;22.85;;;10.75;;
51692;SDS011;37777;53.066;21.638;2022-11-14T16:58:52;23.00;;;10.95;;
51692;SDS011;37777;53.066;21.638;2022-11-14T17:05:54;17.63;;;9.52;;
51692;SDS011;37777;53.066;21.638;2022-11-14T17:12:56;15.68;;;8.68;;
51692;SDS011;37777;53.066;21.638;2022-11-14T17:19:58;20.08;;;10.32;;
51692;SDS011;37777;53.066;21.638;2022-11-14T17:27:01;15.32;;;7.70;;
51692;SDS011;37777;53.066;21.638;2022-11-14T17:34:05;14.80;;;7.40;;
51692;SDS011;37777;53.066;21.638;2022-11-14T17:41:09;16.88;;;8.27;;
51692;SDS011;37777;53.066;21.638;2022-11-14T17:48:11;16.20;;;8.32;;
51692;SDS011;37777;53.066;21.638;2022-11-14T17:55:13;16.77;;;8.70;;
51692;SDS011;37777;53.066;21.638;2022-11-14T18:02:15;17.40;;;8.70;;
51692;SDS011;37777;53.066;21.638;2022-11-14T18:09:19;17.05;;;8.27;;
51692;SDS011;37777;53.066;21.638;2022-11-14T18:16:21;14.15;;;6.70;;
51692;SDS011;37777;53.066;21.638;2022-11-14T18:23:35;14.23;;;7.05;;
51692;SDS011;37777;53.066;21.638;2022-11-14T18:30:39;14.18;;;7.10;;
51692;SDS011;37777;53.066;21.638;2022-11-14T18:37:46;15.95;;;7.13;;
51692;SDS011;37777;53.066;21.638;2022-11-14T18:44:48;13.82;;;7.13;;
51692;SDS011;37777;53.066;21.638;2022-11-14T18:51:51;15.68;;;8.05;;
51692;SDS011;37777;53.066;21.638;2022-11-14T18:58:53;15.23;;;7.65;;
51692;SDS011;37777;53.066;21.638;2022-11-14T19:06:00;15.13;;;7.90;;
51692;SDS011;37777;53.066;21.638;2022-11-14T19:13:02;21.60;;;9.80;;
51692;SDS011;37777;53.066;21.638;2022-11-14T19:20:05;19.85;;;9.48;;
51692;SDS011;37777;53.066;21.638;2022-11-14T19:34:16;18.80;;;8.80;;
51692;SDS011;37777;53.066;21.638;2022-11-14T19:41:20;18.65;;;10.15;;
51692;SDS011;37777;53.066;21.638;2022-11-14T19:48:24;21.42;;;11.00;;
51692;SDS011;37777;53.066;21.638;2022-11-14T19:55:26;23.35;;;10.40;;
51692;SDS011;37777;53.066;21.638;2022-11-14T20:02:28;24.25;;;10.50;;
51692;SDS011;37777;53.066;21.638;2022-11-14T20:09:34;23.73;;;11.38;;
51692;SDS011;37777;53.066;21.638;2022-11-14T20:16:39;22.85;;;10.65;;
51692;SDS011;37777;53.066;21.638;2022-11-14T20:23:42;21.92;;;10.20;;
51692;SDS011;37777;53.066;21.638;2022-11-14T20:30:44;22.83;;;12.00;;
51692;SDS011;37777;53.066;21.638;2022-11-14T20:37:46;24.23;;;11.07;;
51692;SDS011;37777;53.066;21.638;2022-11-14T20:44:48;27.95;;;11.65;;
51692;SDS011;37777;53.066;21.638;2022-11-14T20:51:51;24.60;;;12.43;;
51692;SDS011;37777;53.066;21.638;2022-11-14T20:58:54;26.80;;;13.00;;
51692;SDS011;37777;53.066;21.638;2022-11-14T21:05:58;25.20;;;11.88;;
51692;SDS011;37777;53.066;21.638;2022-11-14T21:13:05;24.58;;;12.13;;
51692;SDS011;37777;53.066;21.638;2022-11-14T21:20:25;27.27;;;12.15;;
51692;SDS011;37777;53.066;21.638;2022-11-14T21:27:27;23.08;;;13.00;;
51692;SDS011;37777;53.066;21.638;2022-11-14T21:34:29;29.45;;;13.32;;
51692;SDS011;37777;53.066;21.638;2022-11-14T21:41:31;25.17;;;12.88;;
51692;SDS011;37777;53.066;21.638;2022-11-14T21:48:34;26.88;;;11.88;;
51692;SDS011;37777;53.066;21.638;2022-11-14T21:55:42;21.60;;;12.25;;
51692;SDS011;37777;53.066;21.638;2022-11-14T22:02:44;22.77;;;11.05;;
51692;SDS011;37777;53.066;21.638;2022-11-14T22:10:19;22.30;;;12.23;;
51692;SDS011;37777;53.066;21.638;2022-11-14T22:17:20;25.15;;;12.23;;
51692;SDS011;37777;53.066;21.638;2022-11-14T22:24:22;19.88;;;12.05;;
51692;SDS011;37777;53.066;21.638;2022-11-14T22:31:24;22.27;;;12.23;;
51692;SDS011;37777;53.066;21.638;2022-11-14T22:38:29;18.95;;;11.20;;
51692;SDS011;37777;53.066;21.638;2022-11-14T22:45:31;25.40;;;12.32;;
51692;SDS011;37777;53.066;21.638;2022-11-14T22:52:33;26.52;;;12.65;;
51692;SDS011;37777;53.066;21.638;2022-11-14T22:59:35;26.05;;;12.52;;
51692;SDS011;37777;53.066;21.638;2022-11-14T23:06:36;22.40;;;12.85;;
51692;SDS011;37777;53.066;21.638;2022-11-14T23:13:39;23.65;;;12.10;;
51692;SDS011;37777;53.066;21.638;2022-11-14T23:20:41;21.40;;;12.73;;
51692;SDS011;37777;53.066;21.638;2022-11-14T23:27:43;23.83;;;12.00;;
51692;SDS011;37777;53.066;21.638;2022-11-14T23:34:45;24.25;;;12.68;;
51692;SDS011;37777;53.066;21.638;2022-11-14T23:41:47;25.85;;;13.00;;
51692;SDS011;37777;53.066;21.638;2022-11-14T23:49:06;23.27;;;12.65;;
51692;SDS011;37777;53.066;21.638;2022-11-14T23:56:08;25.15;;;12.85;;
